Terminal Aerodrome Forecast
Issued by NWS Milwaukee/Sullivan, WI

Home | Current Version | Previous Version | Text Only | Print | Product List | Glossary On
Versions: 1 2 3 4 5 6 7 8 9 10 11 12 13 14 15 16 17 18 19 20 21 22 23 24 25 26 27 28 29 30 31 32 33 34 35 36 37 38 39 40 41
000
FTUS43 KMKX 282326
TAFMSN
TAF
KMSN 282326Z 2900/2924 11005KT 4SM -RA FEW025 SCT040 BKN060
     FM290600 13008KT 3SM RA BR OVC030
     FM291000 14007KT 2SM -SHRA BR OVC010
     FM291600 15005KT 6SM BR VCSH OVC015
     FM291700 15004KT P6SM OVC025
     FM292000 12004KT P6SM BKN035
     FM292200 10004KT P6SM BKN030=

USA.gov is the U.S. government's official web portal to all federal, state and local government web resources and services.